Flight Track Log - Related Links

Times and Time Zones

All times are in EDT time to prevent confusion due to time zone crossing. See the DAL1110 flight status page for this flight to view local times or setup timezone preferences in your user account.

Time Position Orientation Groundspeed Altitude Reporting Facility
EDT Latitude Longitude Course Direction KTS MPH feet Rate Location/Type
Fri 02:31:49 AM 33.4500 -111.9833 67° East 175 201 2,300  Level Phoenix TRACON
Fri 02:32:25 AM 33.4500 -111.9500 90° East 182 209 3,100 1,438 Climbing Phoenix TRACON
Fri 02:33:25 AM 33.4500 -111.8667 90° East 237 273 4,600 1,596 Climbing Phoenix TRACON
Fri 02:34:14 AM 33.4242 -111.8022 116° Southeast 273 314 6,000 2,092 Climbing Albuquerque Center
Fri 02:35:14 AM 33.3733 -111.7275 129° Southeast 293 337 8,400 2,281 Climbing Albuquerque Center
Fri 02:36:15 AM 33.2986 -111.6778 151° Southeast 306 352 10,600 2,678 Climbing Albuquerque Center
Fri 02:37:00 AM 33.7081 -111.1961 67° East  Level FlightAware Approximate
Fri 02:37:15 AM 33.2128 -111.6292 155° Southeast 330 380 13,800  Level Albuquerque Center
Fri 02:38:16 AM 33.1658 -111.5461 124° Southeast 331 381 16,400 2,430 Climbing Albuquerque Center
Fri 02:39:16 AM 33.2019 -111.4447 67° East 337 388 18,700 2,150 Climbing Albuquerque Center
Fri 02:40:16 AM 33.2458 -111.3403 63° Northeast 349 402 20,700 1,934 Climbing Albuquerque Center
Fri 02:41:17 AM 33.2839 -111.2283 68° East 360 414 22,600 1,736 Climbing Albuquerque Center
Fri 02:42:17 AM 33.3111 -111.1081 75° East 372 428 24,200 1,488 Climbing Albuquerque Center
Fri 02:43:18 AM 33.3386 -110.9858 75° East 380 437 25,600 1,388 Climbing Albuquerque Center
Fri 02:44:18 AM 33.3672 -110.8614 75° East 387 445 27,000 942 Climbing Albuquerque Center
Fri 02:45:19 AM 33.3975 -110.7325 74° East 397 457 27,500 744 Climbing Albuquerque Center
Fri 02:46:19 AM 33.4550 -110.6003 62° Northeast 427 491 28,500 950 Climbing Albuquerque Center
Fri 02:47:19 AM 33.5219 -110.4500 62° Northeast 437 503 29,400 793 Climbing Albuquerque Center
Fri 02:48:20 AM 33.5703 -110.3381 63° Northeast 445 512 30,100 893 Climbing Albuquerque Center
Fri 02:49:20 AM 33.6347 -110.2072 59° Northeast 450 518 31,200 1,150 Climbing Albuquerque Center
Fri 02:50:20 AM 33.7119 -110.0494 59° Northeast 455 524 32,400 992 Climbing Albuquerque Center
Fri 02:51:21 AM 33.7756 -109.9164 60° Northeast 458 527 33,200 942 Climbing Albuquerque Center
Fri 02:52:21 AM 33.8394 -109.7853 60° Northeast 456 525 34,300 893 Climbing Albuquerque Center
Fri 02:53:22 AM 33.9025 -109.6517 60° Northeast 458 527 35,000 347 Climbing Albuquerque Center
Fri 02:54:22 AM 33.9664 -109.5189 60° Northeast 458 527 35,000  Level Albuquerque Center
Fri 02:55:22 AM 34.0294 -109.3861 60° Northeast 458 527 35,000  Level Albuquerque Center
Fri 02:56:23 AM 34.0928 -109.2544 60° Northeast 456 525 35,000  Level Albuquerque Center
Fri 02:57:23 AM 34.1553 -109.1203 61° Northeast 456 525 35,000  Level Albuquerque Center
Fri 02:58:24 AM 34.2183 -108.9864 60° Northeast 459 528 35,000  Level Albuquerque Center
Fri 02:59:24 AM 34.2808 -108.8531 60° Northeast 458 527 35,000  Level Albuquerque Center
Fri 03:00:24 AM 34.3431 -108.7175 61° Northeast 457 526 35,000  Level Albuquerque Center
Fri 03:01:25 AM 34.4036 -108.5892 60° Northeast 458 527 35,000  Level Albuquerque Center
Fri 03:02:25 AM 34.4692 -108.4494 60° Northeast 460 529 35,000  Level Albuquerque Center
Fri 03:03:25 AM 34.5314 -108.3147 61° Northeast 459 528 35,000  Level Albuquerque Center
Fri 03:04:26 AM 34.5950 -108.1786 60° Northeast 462 532 35,000  Level Albuquerque Center
Fri 03:05:26 AM 34.6561 -108.0422 61° Northeast 461 531 35,000  Level Albuquerque Center
Fri 03:06:27 AM 34.7186 -107.9061 61° Northeast 462 532 35,000  Level Albuquerque Center
Fri 03:07:27 AM 34.7817 -107.7686 61° Northeast 462 532 35,000  Level Albuquerque Center
Fri 03:08:27 AM 34.8439 -107.6319 61° Northeast 462 532 35,000  Level Albuquerque Center
Fri 03:09:28 AM 34.9053 -107.4942 61° Northeast 463 533 35,000  Level Albuquerque Center
Fri 03:10:28 AM 34.9678 -107.3567 61° Northeast 462 532 35,000  Level Albuquerque Center
Fri 03:11:29 AM 35.0286 -107.2203 61° Northeast 459 528 35,000  Level Albuquerque Center
Fri 03:12:29 AM 35.0972 -107.0675 61° Northeast 463 533 35,000  Level Albuquerque Center
Fri 03:13:29 AM 35.1547 -106.9375 62° Northeast 457 526 35,000  Level Albuquerque Center
Fri 03:14:30 AM 35.2128 -106.8072 61° Northeast 455 524 35,000  Level Albuquerque Center
Fri 03:15:30 AM 35.2700 -106.6781 61° Northeast 454 522 35,000  Level Albuquerque Center
Fri 03:16:30 AM 35.3367 -106.5278 61° Northeast 452 520 35,000  Level Albuquerque Center
Fri 03:17:31 AM 35.3967 -106.3908 62° Northeast 455 524 35,000  Level Albuquerque Center
Fri 03:18:31 AM 35.4561 -106.2547 62° Northeast 454 522 35,000  Level Albuquerque Center
Fri 03:19:32 AM 35.5147 -106.1192 62° Northeast 451 519 35,000  Level Albuquerque Center
Fri 03:20:32 AM 35.5742 -105.9822 62° Northeast 452 520 35,000  Level Albuquerque Center
Fri 03:21:32 AM 35.6322 -105.8442 63° Northeast 447 514 35,000  Level Albuquerque Center
Fri 03:22:33 AM 35.6900 -105.7122 62° Northeast 449 517 35,000  Level Albuquerque Center
Fri 03:23:33 AM 35.7475 -105.5767 62° Northeast 447 514 35,000 650 Level Albuquerque Center
Fri 03:24:33 AM 35.8064 -105.4350 63° Northeast 442 509 36,300 992 Climbing Albuquerque Center
Fri 03:25:34 AM 35.8625 -105.3033 62° Northeast 434 499 37,000 347 Climbing Albuquerque Center
Fri 03:26:34 AM 35.9186 -105.1714 62° Northeast 432 497 37,000  Level Albuquerque Center
Fri 03:27:35 AM 35.9642 -105.0581 64° Northeast 434 499 37,000  Level Albuquerque Center
Fri 03:28:35 AM 36.0214 -104.9244 62° Northeast 434 499 37,000  Level Albuquerque Center
Fri 03:29:35 AM 36.0758 -104.7914 63° Northeast 432 497 37,000  Level Albuquerque Center
Fri 03:30:36 AM 36.1311 -104.6586 63° Northeast 429 494 37,000  Level Albuquerque Center
Fri 03:31:36 AM 36.1872 -104.5236 63° Northeast 434 499 37,000  Level Albuquerque Center
Fri 03:32:36 AM 36.2414 -104.3897 63° Northeast 432 497 37,000  Level Albuquerque Center
Fri 03:33:37 AM 36.2964 -104.2564 63° Northeast 431 496 37,000  Level Albuquerque Center
Fri 03:34:37 AM 36.3514 -104.1233 63° Northeast 429 494 37,000  Level Albuquerque Center
Fri 03:35:38 AM 36.4050 -103.9906 63° Northeast 427 491 37,000  Level Albuquerque Center
Fri 03:36:38 AM 36.4594 -103.8586 63° Northeast 426 490 37,000  Level Albuquerque Center
Fri 03:37:38 AM 36.5136 -103.7233 63° Northeast 429 494 37,000  Level Albuquerque Center
Fri 03:38:39 AM 36.5667 -103.5883 64° Northeast 431 496 37,000  Level Albuquerque Center
Fri 03:39:39 AM 36.6211 -103.4525 63° Northeast 433 498 37,000  Level Albuquerque Center
Fri 03:40:39 AM 36.6792 -103.3069 64° Northeast 432 497 37,000  Level Albuquerque Center
Fri 03:41:40 AM 36.7300 -103.1797 63° Northeast 431 496 37,000  Level Albuquerque Center
Fri 03:42:40 AM 36.7806 -103.0489 64° Northeast 435 501 37,000  Level Albuquerque Center
Fri 03:43:40 AM 36.8319 -102.9197 64° Northeast 436 502 37,000  Level Albuquerque Center
Fri 03:44:41 AM 36.8908 -102.7700 64° Northeast 433 498 37,000  Level Albuquerque Center
Fri 03:45:41 AM 36.9397 -102.6417 64° Northeast 429 494 37,000  Level Albuquerque Center
Fri 03:46:41 AM 36.9936 -102.5044 64° Northeast 429 494 37,000  Level Albuquerque Center
Fri 03:47:42 AM 37.0422 -102.3775 64° Northeast 425 489 37,000  Level Albuquerque Center
Fri 03:48:42 AM 37.0994 -102.2300 64° Northeast 423 487 37,000  Level Albuquerque Center
Fri 03:49:24 AM 37.1306 -102.1464 65° Northeast 417 480 37,000  Level Kansas City Center
Fri 03:50:26 AM 37.1800 -102.0194 64° Northeast 421 484 37,000  Level Kansas City Center
Fri 03:51:24 AM 37.2281 -101.8911 65° Northeast 424 488 37,000  Level Kansas City Center
Fri 03:52:27 AM 37.2844 -101.7411 65° Northeast 425 489 37,000  Level Kansas City Center
Fri 03:53:27 AM 37.3331 -101.6125 65° Northeast 426 490 37,000  Level Kansas City Center
Fri 03:54:26 AM 37.3819 -101.4833 64° Northeast 428 493 37,000  Level Kansas City Center
Fri 03:55:28 AM 37.4375 -101.3331 65° Northeast 426 490 37,000  Level Kansas City Center
Fri 03:56:29 AM 37.4858 -101.2039 65° Northeast 426 490 37,000  Level Kansas City Center
Fri 03:57:29 AM 37.5314 -101.0778 65° Northeast 425 489 37,000  Level Kansas City Center
Fri 03:58:29 AM 37.5797 -100.9417 66° East 425 489 37,000  Level Kansas City Center
Fri 03:59:28 AM 37.6350 -100.8019 63° Northeast 456 525 37,000  Level Kansas City Center
Fri 04:00:31 AM 37.6853 -100.6600 66° East 443 510 37,000  Level Kansas City Center
Fri 04:01:30 AM 37.7350 -100.5250 65° Northeast 429 494 37,000  Level Kansas City Center
Fri 04:02:31 AM 37.7858 -100.3833 66° East 426 490 37,000  Level Kansas City Center
Fri 04:03:31 AM 37.8411 -100.2308 65° Northeast 428 493 37,000  Level Kansas City Center
Fri 04:04:32 AM 37.8875 -100.1003 66° East 426 490 37,000  Level Kansas City Center
Fri 04:05:33 AM 37.9339 -99.9694 66° East 426 490 37,000  Level Kansas City Center
Fri 04:06:31 AM 37.9803 -99.8383 66° East 426 490 37,000  Level Kansas City Center
Fri 04:07:34 AM 38.0336 -99.6856 66° East 426 490 37,000  Level Kansas City Center
Fri 04:08:34 AM 38.0800 -99.5556 66° East 425 489 37,000  Level Kansas City Center
Fri 04:09:32 AM 38.1283 -99.4197 66° East 424 488 37,000  Level Kansas City Center
Fri 04:10:35 AM 38.1758 -99.2822 66° East 424 488 37,000  Level Kansas City Center
Fri 04:11:36 AM 38.2231 -99.1453 66° East 424 488 37,000  Level Kansas City Center
Fri 04:12:37 AM 38.2731 -99.0064 65° Northeast 428 493 37,000  Level Kansas City Center
Fri 04:13:37 AM 38.3192 -98.8681 67° East 426 490 37,000  Level Kansas City Center
Fri 04:14:35 AM 38.3697 -98.7278 65° Northeast 430 495 37,000  Level Kansas City Center
Fri 04:15:38 AM 38.4161 -98.5883 67° East 428 493 37,000  Level Kansas City Center
Fri 04:16:37 AM 38.4639 -98.4483 66° East 428 493 37,000  Level Kansas City Center
Fri 04:17:37 AM 38.5106 -98.3094 67° East 426 490 37,000  Level Kansas City Center
Fri 04:18:40 AM 38.5586 -98.1694 66° East 427 491 37,000  Level Kansas City Center
Fri 04:19:41 AM 38.6050 -98.0283 67° East 429 494 37,000  Level Kansas City Center
Fri 04:20:41 AM 38.6525 -97.8872 67° East 429 494 37,000  Level Kansas City Center
Fri 04:21:40 AM 38.6994 -97.7450 67° East 432 497 37,000  Level Kansas City Center
Fri 04:22:43 AM 38.7519 -97.5881 67° East 431 496 37,000  Level Kansas City Center
Fri 04:23:43 AM 38.7931 -97.4589 68° East 437 503 37,000  Level Kansas City Center
Fri 04:24:44 AM 38.8403 -97.3144 67° East 438 504 37,000  Level Kansas City Center
Fri 04:25:43 AM 38.8867 -97.1714 67° East 435 501 37,000  Level Kansas City Center
Fri 04:26:45 AM 38.9331 -97.0256 68° East 439 505 37,000  Level Kansas City Center
Fri 04:27:46 AM 38.9792 -96.8808 68° East 437 503 37,000  Level Kansas City Center
Fri 04:28:47 AM 39.0361 -96.7122 66° East 441 507 37,000  Level Kansas City Center
Fri 04:29:47 AM 39.0797 -96.5728 68° East 440 506 37,000  Level Kansas City Center
Fri 04:30:46 AM 39.1217 -96.4322 69° East 443 510 37,000  Level Kansas City Center
Fri 04:31:47 AM 39.1725 -96.2689 68° East 439 505 37,000  Level Kansas City Center
Fri 04:32:49 AM 39.2167 -96.1281 68° East 440 506 37,000  Level Kansas City Center
Fri 04:33:50 AM 39.2608 -95.9872 68° East 443 510 37,000  Level Kansas City Center
Fri 04:34:51 AM 39.3125 -95.8214 68° East 445 512 37,000  Level Kansas City Center
Fri 04:35:49 AM 39.3569 -95.6789 68° East 443 510 37,000  Level Kansas City Center
Fri 04:36:52 AM 39.4003 -95.5358 69° East 444 511 37,000  Level Kansas City Center
Fri 04:37:54 AM 39.4486 -95.3772 68° East 445 512 37,000  Level Kansas City Center
Fri 04:38:53 AM 39.4942 -95.2283 68° East 444 511 37,000  Level Kansas City Center
Fri 04:39:54 AM 39.5383 -95.0789 69° East 444 511 37,000  Level Kansas City Center
Fri 04:40:55 AM 39.5819 -94.9347 69° East 445 512 37,000  Level Kansas City Center
Fri 04:41:53 AM 39.6247 -94.7911 69° East 446 513 37,000  Level Kansas City Center
Fri 04:42:53 AM 39.6744 -94.6214 69° East 448 516 37,000  Level Kansas City Center
Fri 04:43:54 AM 39.7172 -94.4775 69° East 447 514 37,000  Level Kansas City Center
Fri 04:44:57 AM 39.7586 -94.3325 70° East 447 514 37,000  Level Kansas City Center
Fri 04:45:58 AM 39.8078 -94.1639 69° East 447 514 37,000  Level Kansas City Center
Fri 04:46:58 AM 39.8469 -94.0244 70° East 449 517 37,000  Level Kansas City Center
Fri 04:47:58 AM 39.8897 -93.8719 70° East 451 519 37,000  Level Kansas City Center
Fri 04:49:00 AM 39.9333 -93.7208 69° East 450 518 37,000  Level Kansas City Center
Fri 04:50:00 AM 39.9778 -93.5681 69° East 454 522 37,000  Level Kansas City Center
Fri 04:51:00 AM 40.0189 -93.4128 71° East 456 525 37,000  Level Kansas City Center
Fri 04:52:00 AM 40.0711 -93.2272 70° East 459 528 37,000  Level Kansas City Center
Fri 04:53:00 AM 40.1147 -93.0731 70° East 457 526 37,000  Level Kansas City Center
Fri 04:54:03 AM 40.1561 -92.9297 69° East 457 526 37,000  Level Kansas City Center
Fri 04:55:03 AM 40.2039 -92.7556 70° East 456 525 37,000  Level Kansas City Center
Fri 04:56:04 AM 40.2447 -92.6058 70° East 455 524 37,000  Level Kansas City Center
Fri 04:57:05 AM 40.2861 -92.4564 70° East 456 525 37,000  Level Kansas City Center
Fri 04:58:03 AM 40.3258 -92.3111 70° East 460 529 37,000  Level Kansas City Center
Fri 04:59:05 AM 40.3761 -92.1219 71° East 462 532 37,000  Level Kansas City Center
Fri 05:00:05 AM 40.4181 -91.9622 71° East 465 535 37,000  Level Kansas City Center
Fri 05:01:08 AM 40.4608 -91.8017 71° East 469 540 37,000  Level Kansas City Center
Fri 05:02:09 AM 40.5031 -91.6408 71° East 469 540 37,000  Level Kansas City Center
Fri 05:03:08 AM 40.5453 -91.4794 71° East 471 542 37,000  Level Kansas City Center
Fri 05:04:09 AM 40.5867 -91.3169 71° East 472 543 37,000  Level Kansas City Center
Fri 05:05:10 AM 40.6294 -91.1528 71° East 471 542 37,000  Level Kansas City Center
Fri 05:06:11 AM 40.6733 -90.9903 70° East 470 541 37,000  Level Kansas City Center
Fri 05:07:11 AM 40.7142 -90.8264 72° East 472 543 37,000  Level Kansas City Center
Fri 05:08:12 AM 40.7561 -90.6633 71° East 470 541 37,000  Level Kansas City Center
Fri 05:09:10 AM 40.7978 -90.4981 72° East 472 543 37,000  Level Kansas City Center
Fri 05:10:12 AM 40.8389 -90.3339 72° East 471 542 37,000  Level Kansas City Center
Fri 05:11:14 AM 40.8803 -90.1694 72° East 469 540 37,000  Level Kansas City Center
Fri 05:12:33 AM 40.9344 -89.9533 72° East 467 537 37,000  Level Chicago Center
Fri 05:13:34 AM 40.9814 -89.7578 72° East 468 539 37,000  Level Chicago Center
Fri 05:14:34 AM 41.0167 -89.6067 73° East 463 533 37,000  Level Chicago Center
Fri 05:15:35 AM 41.0550 -89.4431 73° East 467 537 37,000  Level Chicago Center
Fri 05:16:35 AM 41.0953 -89.2783 72° East 468 539 37,000  Level Chicago Center
Fri 05:17:36 AM 41.1350 -89.1072 73° East 469 540 37,000  Level Chicago Center
Fri 05:18:36 AM 41.1742 -88.9425 72° East 473 544 37,000  Level Chicago Center
Fri 05:19:37 AM 41.2092 -88.7775 74° East 469 540 37,000  Level Chicago Center
Fri 05:20:38 AM 41.2333 -88.6081 79° East 470 541 37,000  Level Chicago Center
Fri 05:21:38 AM 41.2586 -88.4375 79° East 473 544 37,000  Level Chicago Center
Fri 05:22:39 AM 41.2836 -88.2694 79° East 469 540 37,000  Level Chicago Center
Fri 05:23:39 AM 41.3056 -88.1011 80° East 459 528 37,000  Level Chicago Center
Fri 05:24:40 AM 41.3353 -87.8983 79° East 481 554 37,000  Level Chicago Center
Fri 05:25:40 AM 41.3619 -87.7322 78° East 471 542 37,000  Level Chicago Center
Fri 05:26:41 AM 41.3867 -87.5639 79° East 470 541 37,000  Level Chicago Center
Fri 05:27:42 AM 41.4106 -87.3961 79° East 466 536 37,000  Level Chicago Center
Fri 05:28:42 AM 41.4339 -87.2278 79° East 466 536 37,000  Level Chicago Center
Fri 05:29:43 AM 41.4567 -87.0553 80° East 473 544 37,000  Level Chicago Center
Fri 05:30:43 AM 41.4797 -86.8825 80° East 476 548 37,000  Level Chicago Center
Fri 05:31:44 AM 41.5039 -86.7061 80° East 477 549 37,000 -49 Level Chicago Center
Fri 05:32:45 AM 41.5269 -86.5336 80° East 474 545 36,900 -496 Descending Chicago Center
Fri 05:33:45 AM 41.5492 -86.3586 80° East 478 550 36,000 -942 Descending Chicago Center
Fri 05:34:46 AM 41.5714 -86.1825 80° East 482 555 35,000 -1,884 Descending Chicago Center
Fri 05:35:46 AM 41.5944 -86.0017 80° East 491 565 32,200 -3,124 Descending Chicago Center
Fri 05:36:47 AM 41.6178 -85.8189 80° East 500 575 28,700 -3,124 Descending Chicago Center
Fri 05:37:47 AM 41.6406 -85.6353 81° East 501 577 25,900 -2,727 Descending Chicago Center
Fri 05:38:48 AM 41.6639 -85.4436 81° East 482 555 23,200 -2,508 Descending Chicago Center
Fri 05:39:49 AM 41.6850 -85.2753 80° East 475 547 20,800 -2,083 Descending Chicago Center
Fri 05:40:49 AM 41.7044 -85.1119 81° East 451 519 19,000 -992 Descending Chicago Center
Fri 05:41:50 AM 41.7231 -84.9525 81° East 438 504 18,800 -595 Descending Chicago Center
Fri 05:42:50 AM 41.7422 -84.7897 81° East 443 510 17,800 -942 Descending Chicago Center
Fri 05:43:51 AM 41.7600 -84.6297 81° East 438 504 16,900 -934 Descending Chicago Center
Fri 05:44:52 AM 41.7778 -84.4736 81° East 430 495 15,900 -992 Descending Chicago Center
Fri 05:45:52 AM 41.7958 -84.3169 81° East 427 491 14,900 -1,190 Descending Chicago Center
Fri 05:46:53 AM 41.8139 -84.1650 81° East 420 483 13,500 -1,438 Descending Chicago Center
Fri 05:47:53 AM 41.8411 -84.0239 75° East 405 466 12,000 -744 Descending Chicago Center
Fri 05:48:54 AM 41.9158 -83.9181 46° Northeast 401 461 12,000  Level Chicago Center
Fri 05:49:55 AM 42.0061 -83.7925 46° Northeast 396 456 12,000 -99 Level Chicago Center
Fri 05:50:55 AM 42.0858 -83.6906 43° Northeast 395 455 11,800 -200 Descending Chicago Center

Login

Don't have an account? Register now (free) for customized features, flight alerts, and more!